Addieville, Illinois
Current Conditions -  °F | °C
As of 4:55 PM on Saturday 20 Dec 2014 (Local Time) from KSAR Reporting Station
Overcast Overcast  
Wind Chill:   Ceiling: 2700
Heat Index:   Visibility: 10mi
Dew Point:   Wind: 3mph
Humidity: 75%   Direction: 130°SE
Pressure: 30.25"   Gusts: NA
Location:  38.39°N, 89.49°W
Report Text: KSAR 202255Z AUTO 13003KT 10SM BKN027 OVC033 04/00 A3025 RMK AO2 T00420001
Loading
Personal Weather Stations






























Interactive Weather Map New forecast layout! Learn more

10-Day Weather Forecast

Advertisements
Track Severe Weather on mobile